Time;durP1;ratioP1;P1;durP2;ratioP2;P2;SDS_P1;SDS_P2;PMS_P1;PMS_P2;Temp;Humidity;BMP_temperature;BMP_pressure;BME280_temperature;BME280_humidity;BME280_pressure;Samples;Min_cycle;Max_cycle;Signal;HPM_P1;HPM_P2
2022/05/15 00:00:58;;;;;;;35.00;10.23;;;14.40;1.00;;;;;;5006782;28;25060;-70
2022/05/15 00:03:24;;;;;;;27.23;9.43;;;14.40;1.00;;;;;;5006810;28;25071;-70
2022/05/15 00:05:55;;;;;;;36.40;8.95;;;14.30;1.00;;;;;;5011464;28;25067;-73
2022/05/15 00:08:22;;;;;;;29.88;9.68;;;14.30;1.00;;;;;;5009265;28;25051;-73
2022/05/15 00:10:48;;;;;;;27.30;9.32;;;14.30;1.00;;;;;;5010944;28;25063;-72
2022/05/15 00:13:14;;;;;;;31.63;10.10;;;14.40;1.00;;;;;;5008021;28;25072;-73
2022/05/15 00:15:40;;;;;;;28.73;9.88;;;14.30;1.00;;;;;;5009016;28;25067;-72
2022/05/15 00:18:06;;;;;;;32.05;10.88;;;14.30;1.00;;;;;;5007890;28;25160;-72
2022/05/15 00:20:32;;;;;;;28.92;10.05;;;14.30;1.00;;;;;;5006133;28;25136;-74
2022/05/15 00:22:58;;;;;;;34.20;9.98;;;14.20;1.00;;;;;;5004714;28;25097;-73
2022/05/15 00:25:24;;;;;;;30.23;9.35;;;14.10;1.00;;;;;;5006797;28;25165;-71
2022/05/15 00:27:50;;;;;;;37.00;8.88;;;14.10;1.00;;;;;;5006379;28;25158;-72
2022/05/15 00:30:17;;;;;;;32.20;10.27;;;14.10;1.00;;;;;;5007387;28;25042;-72
2022/05/15 00:32:43;;;;;;;33.20;9.30;;;14.00;1.00;;;;;;5007854;28;25078;-71
2022/05/15 00:35:09;;;;;;;26.67;8.75;;;14.00;1.00;;;;;;5006315;28;25084;-72
2022/05/15 00:37:34;;;;;;;32.40;9.57;;;14.00;1.00;;;;;;5004913;28;25147;-73
2022/05/15 00:40:00;;;;;;;32.78;9.38;;;13.90;1.00;;;;;;5007104;28;25054;-73
2022/05/15 00:42:26;;;;;;;28.85;9.02;;;13.90;1.00;;;;;;5003500;28;25147;-70
2022/05/15 00:44:52;;;;;;;40.58;9.38;;;13.90;1.00;;;;;;5006883;28;25107;-72
2022/05/15 00:47:18;;;;;;;39.17;8.88;;;13.80;1.00;;;;;;5006936;28;25070;-71
2022/05/15 00:49:45;;;;;;;39.38;8.75;;;13.70;1.00;;;;;;5007252;28;25144;-72
2022/05/15 00:52:14;;;;;;;38.38;10.18;;;13.70;1.00;;;;;;5007014;28;25047;-72
2022/05/15 00:55:16;;;;;;;30.58;8.30;;;13.70;1.00;;;;;;5005876;28;25067;-73
2022/05/15 00:57:52;;;;;;;34.20;8.55;;;13.70;1.00;;;;;;5005595;28;25158;-72
2022/05/15 01:00:21;;;;;;;31.95;8.50;;;13.70;1.00;;;;;;5004272;28;25104;-71
2022/05/15 01:03:12;;;;;;;34.05;8.70;;;13.70;1.00;;;;;;5005216;28;25142;-71
2022/05/15 01:05:46;;;;;;;31.05;8.77;;;13.70;1.00;;;;;;5004253;28;25072;-70
2022/05/15 01:08:12;;;;;;;32.83;8.88;;;13.70;1.00;;;;;;5005066;28;25095;-72
2022/05/15 01:10:42;;;;;;;31.67;8.40;;;13.70;1.00;;;;;;5004923;28;25152;-71
2022/05/15 01:13:09;;;;;;;36.15;7.97;;;13.70;1.00;;;;;;5004109;28;25102;-72
2022/05/15 01:15:36;;;;;;;22.52;7.70;;;13.70;1.00;;;;;;5004897;28;25062;-72
2022/05/15 01:18:02;;;;;;;35.05;9.88;;;13.70;1.00;;;;;;5006470;28;25098;-72
2022/05/15 01:20:30;;;;;;;41.22;10.18;;;13.70;1.00;;;;;;5011213;28;25070;-72
2022/05/15 01:22:55;;;;;;;33.53;9.27;;;13.70;1.00;;;;;;5004584;28;25107;-73
2022/05/15 01:25:26;;;;;;;34.75;9.20;;;13.60;1.00;;;;;;5020261;28;25167;-72
2022/05/15 01:28:12;;;;;;;34.38;7.93;;;13.50;1.00;;;;;;5006020;28;25107;-71
2022/05/15 01:30:41;;;;;;;33.38;8.52;;;13.60;1.00;;;;;;5005867;28;25096;-72
2022/05/15 01:33:06;;;;;;;30.00;9.40;;;13.60;1.00;;;;;;5006169;28;25045;-73
2022/05/15 01:35:32;;;;;;;33.78;9.02;;;13.60;1.00;;;;;;5005690;28;25068;-70
2022/05/15 01:37:58;;;;;;;38.47;9.57;;;13.60;1.00;;;;;;5007720;28;25137;-71
2022/05/15 01:40:23;;;;;;;39.40;10.20;;;13.50;1.00;;;;;;5007667;28;25052;-72
2022/05/15 01:42:49;;;;;;;31.40;9.52;;;13.50;1.00;;;;;;5005849;28;25125;-72
2022/05/15 01:45:15;;;;;;;35.03;8.30;;;13.40;1.00;;;;;;5008180;28;25094;-72
2022/05/15 01:47:41;;;;;;;32.85;9.98;;;13.40;1.00;;;;;;5006448;28;25066;-72
2022/05/15 01:50:08;;;;;;;32.60;8.07;;;13.40;1.00;;;;;;5007061;28;25066;-72
2022/05/15 01:52:35;;;;;;;28.35;8.85;;;13.30;1.00;;;;;;5006332;28;25068;-73
2022/05/15 01:55:01;;;;;;;31.52;8.60;;;13.20;1.00;;;;;;5005996;28;25079;-71
2022/05/15 01:57:27;;;;;;;35.55;9.85;;;13.30;1.00;;;;;;5004898;28;25133;-71
2022/05/15 01:59:52;;;;;;;28.02;8.88;;;13.20;1.00;;;;;;5005295;28;25058;-72
2022/05/15 02:02:18;;;;;;;33.88;9.32;;;13.30;1.00;;;;;;5005151;28;25076;-71
2022/05/15 02:04:44;;;;;;;36.83;9.15;;;13.30;1.00;;;;;;5013491;28;25106;-72
2022/05/15 02:07:09;;;;;;;28.52;7.80;;;13.40;1.00;;;;;;5009003;28;25081;-72
2022/05/15 02:09:35;;;;;;;37.17;8.20;;;13.40;1.00;;;;;;5005494;28;25087;-74
2022/05/15 02:12:01;;;;;;;24.70;7.80;;;13.40;1.00;;;;;;5002990;28;25145;-72
2022/05/15 02:14:27;;;;;;;28.70;8.73;;;13.40;1.00;;;;;;5002948;28;25065;-71
2022/05/15 02:16:53;;;;;;;34.95;8.85;;;13.40;1.00;;;;;;5003827;28;25067;-71
2022/05/15 02:19:18;;;;;;;35.80;8.40;;;13.30;1.00;;;;;;5004768;28;25088;-71
2022/05/15 02:21:45;;;;;;;39.17;11.25;;;13.30;1.00;;;;;;5003633;28;25058;-72
2022/05/15 02:24:11;;;;;;;37.05;9.32;;;13.30;1.00;;;;;;5005210;28;25092;-72
2022/05/15 02:26:37;;;;;;;31.08;8.50;;;13.20;1.00;;;;;;5003574;28;25150;-72
2022/05/15 02:29:04;;;;;;;41.30;9.50;;;13.20;1.10;;;;;;5007125;28;25084;-72
2022/05/15 02:31:29;;;;;;;37.03;10.13;;;13.30;1.40;;;;;;5008097;28;25091;-71
2022/05/15 02:33:55;;;;;;;35.03;9.55;;;13.20;1.70;;;;;;5005307;28;25168;-71
2022/05/15 02:36:21;;;;;;;33.13;8.20;;;13.20;3.20;;;;;;5006709;28;25145;-72
2022/05/15 02:38:46;;;;;;;42.25;9.63;;;13.20;3.60;;;;;;5008050;28;25076;-71
2022/05/15 02:41:12;;;;;;;27.85;9.02;;;13.20;2.90;;;;;;5006065;28;25055;-72
2022/05/15 02:43:38;;;;;;;32.95;9.70;;;13.20;4.40;;;;;;5009451;28;25154;-73
2022/05/15 02:46:03;;;;;;;31.55;9.27;;;13.20;4.10;;;;;;5014354;28;25063;-70
2022/05/15 02:51:13;;;;;;;29.52;8.35;;;13.20;4.50;;;;;;5008100;28;25139;-72
2022/05/15 02:53:42;;;;;;;35.83;9.55;;;13.20;5.10;;;;;;5007294;28;25145;-73
2022/05/15 02:56:15;;;;;;;34.45;9.32;;;13.20;4.70;;;;;;5007833;28;25096;-71
2022/05/15 02:58:40;;;;;;;30.58;8.93;;;13.30;3.90;;;;;;5006729;28;25058;-72
2022/05/15 03:01:06;;;;;;;34.92;9.02;;;13.20;4.80;;;;;;5008099;28;25063;-72
2022/05/15 03:03:32;;;;;;;41.78;8.85;;;13.20;5.80;;;;;;5007931;28;25105;-70
2022/05/15 03:05:58;;;;;;;34.85;9.90;;;13.20;4.90;;;;;;5006836;28;25091;-71
2022/05/15 03:08:25;;;;;;;34.33;8.95;;;13.10;5.30;;;;;;5007291;28;25068;-71
2022/05/15 03:10:51;;;;;;;32.03;8.10;;;13.20;6.70;;;;;;5006115;28;25084;-72
2022/05/15 03:13:17;;;;;;;32.30;8.70;;;13.10;6.60;;;;;;5006170;28;25072;-71
2022/05/15 03:15:43;;;;;;;32.92;9.52;;;13.00;7.00;;;;;;5006215;28;25063;-72
2022/05/15 03:18:08;;;;;;;31.67;10.18;;;13.00;8.10;;;;;;5007662;28;25063;-74
2022/05/15 03:20:34;;;;;;;31.77;9.75;;;13.00;7.40;;;;;;5008608;28;25066;-72
2022/05/15 03:23:00;;;;;;;40.40;9.43;;;12.90;9.10;;;;;;5006308;28;25053;-71
2022/05/15 03:25:30;;;;;;;29.20;8.98;;;12.90;9.60;;;;;;5008504;28;25064;-72
2022/05/15 03:27:56;;;;;;;41.97;9.57;;;12.90;10.40;;;;;;5006608;28;25066;-71
2022/05/15 03:30:22;;;;;;;28.40;8.75;;;13.00;9.20;;;;;;5008115;28;25059;-71
2022/05/15 03:32:48;;;;;;;34.90;8.50;;;12.90;10.00;;;;;;5010470;28;25058;-71
2022/05/15 03:35:14;;;;;;;26.25;9.35;;;12.90;11.00;;;;;;5009373;28;25060;-72
2022/05/15 03:37:41;;;;;;;30.30;9.52;;;12.90;9.10;;;;;;5014437;28;25064;-73
2022/05/15 03:40:10;;;;;;;35.85;9.45;;;12.90;9.60;;;;;;5017135;28;25058;-73
2022/05/15 03:42:36;;;;;;;43.95;10.35;;;12.80;11.70;;;;;;5015080;28;25133;-72
2022/05/15 03:45:02;;;;;;;35.00;10.30;;;12.70;12.70;;;;;;5017154;28;25063;-72
2022/05/15 03:47:28;;;;;;;28.30;9.23;;;12.70;13.00;;;;;;5015777;28;25109;-71
2022/05/15 03:49:53;;;;;;;40.97;10.30;;;12.60;17.20;;;;;;5019066;28;25154;-72
2022/05/15 03:52:19;;;;;;;35.58;9.82;;;12.50;18.10;;;;;;5011170;28;25116;-72
2022/05/15 03:54:46;;;;;;;32.55;9.57;;;12.40;19.80;;;;;;5008336;28;25148;-72
2022/05/15 03:57:12;;;;;;;29.83;9.73;;;12.40;21.40;;;;;;5007329;28;25074;-72
2022/05/15 03:59:40;;;;;;;26.77;9.05;;;12.40;21.40;;;;;;5007844;28;25122;-72
2022/05/15 04:02:07;;;;;;;29.10;8.75;;;12.40;21.50;;;;;;5007352;28;25096;-72
2022/05/15 04:04:34;;;;;;;31.25;9.65;;;12.30;22.60;;;;;;5006174;28;25066;-71
2022/05/15 04:07:00;;;;;;;35.75;9.52;;;12.30;23.80;;;;;;5008033;28;25070;-74
2022/05/15 04:09:27;;;;;;;32.22;9.80;;;12.30;25.40;;;;;;5010270;28;25168;-72
2022/05/15 04:11:53;;;;;;;37.45;9.90;;;12.30;23.40;;;;;;5012443;28;25053;-71
2022/05/15 04:14:19;;;;;;;29.15;9.32;;;12.30;24.50;;;;;;5007823;28;25067;-72
2022/05/15 04:16:44;;;;;;;35.45;9.95;;;12.40;27.00;;;;;;5006611;28;25065;-72
2022/05/15 04:19:10;;;;;;;30.10;8.40;;;12.40;24.60;;;;;;5006180;28;25112;-71
2022/05/15 04:21:40;;;;;;;34.70;9.02;;;12.40;24.90;;;;;;5012811;28;25134;-71
2022/05/15 04:24:14;;;;;;;33.90;9.32;;;12.50;23.70;;;;;;5007603;28;25071;-72
2022/05/15 04:26:41;;;;;;;35.33;9.48;;;12.50;21.90;;;;;;5022328;28;25093;-72
2022/05/15 04:29:07;;;;;;;38.17;9.70;;;12.60;21.70;;;;;;4992852;28;25065;-71
2022/05/15 04:31:34;;;;;;;33.35;8.13;;;12.60;21.60;;;;;;5006290;28;25072;-71
2022/05/15 04:34:00;;;;;;;30.88;8.82;;;12.60;20.00;;;;;;5004961;28;25071;-71
2022/05/15 04:36:25;;;;;;;32.22;9.90;;;12.70;18.70;;;;;;5006309;28;25163;-71
2022/05/15 04:38:51;;;;;;;35.25;9.23;;;12.70;20.10;;;;;;5005249;28;25174;-72
2022/05/15 04:41:17;;;;;;;30.90;8.52;;;12.70;19.30;;;;;;5006228;28;25109;-72
2022/05/15 04:43:42;;;;;;;32.60;8.20;;;12.80;19.20;;;;;;5004560;28;25053;-72
2022/05/15 04:46:09;;;;;;;29.38;8.43;;;12.70;20.50;;;;;;5005450;28;25132;-72
2022/05/15 04:48:35;;;;;;;32.50;9.05;;;12.90;19.70;;;;;;5006387;28;25157;-71
2022/05/15 04:51:01;;;;;;;48.17;10.90;;;12.80;18.30;;;;;;5006029;28;25067;-72
2022/05/15 04:53:27;;;;;;;34.05;9.40;;;12.90;19.30;;;;;;5005458;28;25081;-71
2022/05/15 04:55:53;;;;;;;28.40;8.32;;;12.90;18.10;;;;;;5006417;28;25152;-72
2022/05/15 04:58:19;;;;;;;31.90;8.77;;;13.00;17.70;;;;;;5005108;28;25142;-71
2022/05/15 05:00:45;;;;;;;31.33;8.63;;;13.00;16.50;;;;;;5001998;28;25161;-72
2022/05/15 05:03:11;;;;;;;30.40;8.65;;;13.10;17.50;;;;;;5002330;28;25064;-71
2022/05/15 05:05:36;;;;;;;33.35;8.80;;;13.10;17.60;;;;;;5001587;28;25080;-72
2022/05/15 05:08:02;;;;;;;31.35;9.70;;;13.20;15.80;;;;;;5001871;28;25076;-73
2022/05/15 05:10:28;;;;;;;32.78;9.65;;;13.30;13.70;;;;;;5000216;28;25142;-72
2022/05/15 05:12:53;;;;;;;35.78;9.07;;;13.20;14.50;;;;;;5003175;28;25122;-73
2022/05/15 05:15:19;;;;;;;37.00;10.05;;;13.20;16.40;;;;;;5003176;28;25071;-72
2022/05/15 05:17:44;;;;;;;26.65;9.02;;;13.30;15.70;;;;;;5004862;28;25094;-72
2022/05/15 05:20:12;;;;;;;38.25;9.25;;;13.30;14.90;;;;;;5006011;28;25067;-71
2022/05/15 05:22:38;;;;;;;33.50;9.77;;;13.40;15.10;;;;;;5003694;28;25056;-72
2022/05/15 05:25:04;;;;;;;36.97;9.45;;;13.40;13.70;;;;;;5003235;28;25142;-74
2022/05/15 05:27:30;;;;;;;36.35;9.48;;;13.40;13.40;;;;;;5005991;28;25120;-73
2022/05/15 05:29:55;;;;;;;28.30;8.60;;;13.60;13.60;;;;;;5005645;28;25064;-72
2022/05/15 05:32:21;;;;;;;41.00;9.45;;;13.60;12.10;;;;;;5006873;28;25067;-73
2022/05/15 05:34:47;;;;;;;32.92;9.27;;;13.60;8.90;;;;;;5006391;28;24871;-74
2022/05/15 05:37:15;;;;;;;29.98;8.77;;;13.70;8.60;;;;;;5005636;28;25183;-74
2022/05/15 05:39:40;;;;;;;34.42;8.98;;;13.80;7.10;;;;;;5006226;28;25066;-73
2022/05/15 05:42:06;;;;;;;31.75;9.20;;;13.80;6.90;;;;;;5005161;28;25067;-70
2022/05/15 05:44:31;;;;;;;32.35;9.00;;;13.90;4.60;;;;;;5005383;28;25075;-72
2022/05/15 05:46:57;;;;;;;35.22;8.88;;;14.00;3.50;;;;;;5005002;28;25108;-72
2022/05/15 05:49:22;;;;;;;32.33;9.68;;;14.10;2.70;;;;;;5005919;28;25061;-71
2022/05/15 05:51:48;;;;;;;33.30;9.18;;;14.20;1.90;;;;;;5006828;28;25106;-72
2022/05/15 05:54:14;;;;;;;31.05;9.27;;;14.30;1.00;;;;;;5006889;28;25171;-71
2022/05/15 05:56:39;;;;;;;30.30;8.90;;;14.30;1.00;;;;;;5006464;28;25074;-72
2022/05/15 05:59:05;;;;;;;39.97;9.52;;;14.30;1.00;;;;;;5006509;28;25088;-71
2022/05/15 06:01:30;;;;;;;40.00;9.75;;;14.50;1.00;;;;;;5004445;28;25075;-72
2022/05/15 06:06:40;;;;;;;32.70;9.82;;;14.70;1.00;;;;;;5009666;28;25105;-71
2022/05/15 06:09:05;;;;;;;29.48;9.05;;;14.90;1.00;;;;;;5011689;28;25118;-71
2022/05/15 06:11:31;;;;;;;34.30;9.05;;;14.90;1.00;;;;;;5011027;28;25072;-71
2022/05/15 06:13:56;;;;;;;29.38;9.02;;;15.10;1.00;;;;;;5011227;28;25085;-73
2022/05/15 06:16:22;;;;;;;28.70;9.60;;;15.20;1.00;;;;;;5010513;28;25083;-71
2022/05/15 06:18:48;;;;;;;34.63;9.88;;;15.40;1.00;;;;;;5009159;28;25059;-72
2022/05/15 06:21:14;;;;;;;33.67;8.93;;;15.70;1.00;;;;;;5009715;28;25056;-73
2022/05/15 06:23:39;;;;;;;33.67;9.50;;;15.80;1.00;;;;;;5009182;28;25063;-72
2022/05/15 06:26:05;;;;;;;30.17;9.30;;;15.90;1.00;;;;;;5007691;28;25120;-73
2022/05/15 06:28:33;;;;;;;30.30;9.48;;;15.70;1.00;;;;;;5008557;28;25067;-72
2022/05/15 06:30:58;;;;;;;34.58;9.63;;;15.70;1.00;;;;;;5008296;28;25063;-71
2022/05/15 06:33:24;;;;;;;34.20;9.85;;;15.90;1.00;;;;;;5008831;28;25074;-73
2022/05/15 06:35:49;;;;;;;41.40;10.13;;;16.20;1.00;;;;;;5009565;28;25056;-71
2022/05/15 06:38:15;;;;;;;30.60;8.65;;;16.20;1.00;;;;;;5009156;28;25065;-73
2022/05/15 06:40:42;;;;;;;24.17;9.40;;;16.20;1.00;;;;;;5010245;28;25153;-70
2022/05/15 06:43:07;;;;;;;30.25;9.73;;;16.50;1.00;;;;;;5006918;28;25096;-72
2022/05/15 06:45:33;;;;;;;28.33;9.32;;;16.40;1.00;;;;;;5010825;28;25081;-74
2022/05/15 06:47:59;;;;;;;27.75;8.18;;;16.60;1.00;;;;;;5010892;28;25059;-73
2022/05/15 06:50:24;;;;;;;27.88;9.05;;;16.40;1.00;;;;;;5010737;28;25094;-72
2022/05/15 06:52:50;;;;;;;33.28;8.65;;;16.40;1.00;;;;;;5011465;28;25064;-74
2022/05/15 06:55:19;;;;;;;27.67;10.07;;;16.50;1.00;;;;;;5010960;28;25075;-73
2022/05/15 06:57:47;;;;;;;28.40;9.63;;;16.40;1.00;;;;;;5010319;28;25085;-73
2022/05/15 07:00:25;;;;;;;28.48;9.27;;;16.60;1.00;;;;;;5010492;28;25054;-72
2022/05/15 07:02:51;;;;;;;30.67;8.02;;;17.10;1.00;;;;;;5008659;28;25075;-73
2022/05/15 07:05:24;;;;;;;29.55;9.45;;;17.20;1.00;;;;;;5009828;28;25158;-73
2022/05/15 07:07:52;;;;;;;29.02;9.20;;;17.10;1.00;;;;;;5009567;28;25091;-74
2022/05/15 07:10:18;;;;;;;26.70;9.88;;;17.10;1.00;;;;;;5006441;28;25130;-72
2022/05/15 07:12:44;;;;;;;25.52;8.45;;;17.50;1.00;;;;;;5006351;28;25053;-73
2022/05/15 07:15:11;;;;;;;28.33;9.13;;;17.80;1.00;;;;;;5005846;28;25057;-74
2022/05/15 07:17:36;;;;;;;22.60;8.43;;;17.90;1.00;;;;;;5008655;28;25065;-72
2022/05/15 07:20:03;;;;;;;25.13;9.40;;;17.90;1.00;;;;;;5007271;28;25090;-73
2022/05/15 07:22:29;;;;;;;34.15;10.38;;;18.30;1.00;;;;;;5005785;28;25079;-73
2022/05/15 07:24:55;;;;;;;30.55;9.75;;;18.30;1.00;;;;;;5014185;28;25061;-74
2022/05/15 07:27:20;;;;;;;26.27;8.52;;;18.80;1.00;;;;;;5007947;28;25071;-72
2022/05/15 07:29:46;;;;;;;27.25;8.52;;;18.90;1.00;;;;;;5006633;28;25100;-73
2022/05/15 07:32:12;;;;;;;25.05;9.18;;;19.10;1.00;;;;;;5010050;28;25090;-73
2022/05/15 07:34:39;;;;;;;30.00;10.13;;;18.90;1.00;;;;;;5012538;28;25080;-73
2022/05/15 07:37:04;;;;;;;29.17;10.23;;;18.90;1.00;;;;;;5006417;28;24987;-72
2022/05/15 07:39:30;;;;;;;29.10;10.23;;;19.00;1.00;;;;;;5008012;28;25065;-73
2022/05/15 07:41:56;;;;;;;26.70;9.60;;;19.10;1.00;;;;;;5006724;28;25203;-73
2022/05/15 07:44:22;;;;;;;30.60;9.35;;;19.30;1.00;;;;;;5007036;28;25103;-73
2022/05/15 07:46:48;;;;;;;22.33;9.13;;;19.60;1.00;;;;;;5007966;28;25041;-75
2022/05/15 07:49:13;;;;;;;22.48;9.90;;;19.60;1.00;;;;;;5006458;28;25140;-73
2022/05/15 07:51:44;;;;;;;24.75;9.00;;;19.30;1.00;;;;;;5006780;28;25052;-75
2022/05/15 07:54:11;;;;;;;29.42;9.98;;;19.50;1.00;;;;;;5004139;28;25072;-74
2022/05/15 07:56:36;;;;;;;23.08;8.90;;;19.40;1.00;;;;;;5003928;28;25050;-74
2022/05/15 07:59:02;;;;;;;31.58;11.27;;;19.40;1.00;;;;;;5006577;28;25116;-75
2022/05/15 08:01:29;;;;;;;25.15;9.43;;;20.00;1.00;;;;;;5005550;28;25141;-72
2022/05/15 08:03:55;;;;;;;30.67;9.55;;;20.30;1.00;;;;;;5005577;28;25103;-74
2022/05/15 08:09:08;;;;;;;20.02;9.10;;;20.30;1.00;;;;;;5006883;28;25135;-75
2022/05/15 08:11:36;;;;;;;23.75;9.80;;;20.20;1.00;;;;;;5004347;28;25086;-73
2022/05/15 08:14:04;;;;;;;27.02;10.52;;;20.30;1.00;;;;;;5003255;28;25107;-74
2022/05/15 08:16:31;;;;;;;22.15;8.98;;;19.90;1.00;;;;;;5005679;28;25091;-75
2022/05/15 08:24:26;;;;;;;36.65;9.40;;;20.50;1.00;;;;;;5007038;28;25056;-72
2022/05/15 08:26:52;;;;;;;21.65;8.95;;;20.90;1.00;;;;;;5005189;28;25100;-75
2022/05/15 08:29:18;;;;;;;24.25;8.80;;;21.00;1.00;;;;;;5005776;28;25100;-75
2022/05/15 08:31:44;;;;;;;23.55;8.50;;;21.50;1.00;;;;;;5000501;28;25059;-72
2022/05/15 08:34:10;;;;;;;23.63;8.30;;;21.50;1.00;;;;;;5004205;28;25132;-74
2022/05/15 08:36:39;;;;;;;18.67;8.48;;;21.70;1.00;;;;;;5003127;28;25087;-73
2022/05/15 08:39:04;;;;;;;20.73;8.75;;;21.70;1.00;;;;;;5003844;28;25104;-74
2022/05/15 08:41:30;;;;;;;18.65;7.70;;;21.80;1.00;;;;;;5001413;28;25096;-73
2022/05/15 08:44:32;;;;;;;22.02;8.25;;;22.30;1.00;;;;;;5001183;28;25099;-75
2022/05/15 08:47:35;;;;;;;25.80;8.93;;;22.50;1.00;;;;;;4994634;28;25105;-75
2022/05/15 08:50:11;;;;;;;18.88;8.00;;;22.30;1.00;;;;;;5004168;28;25070;-75
2022/05/15 08:52:47;;;;;;;23.85;8.35;;;22.80;1.00;;;;;;5003261;28;25061;-73
2022/05/15 08:55:15;;;;;;;22.98;8.35;;;23.10;1.00;;;;;;5003878;28;25087;-76
2022/05/15 08:57:56;;;;;;;19.77;8.18;;;22.90;1.00;;;;;;5002464;28;25109;-73
2022/05/15 09:00:30;;;;;;;21.73;9.27;;;23.00;1.00;;;;;;5003420;28;25047;-74
2022/05/15 09:03:06;;;;;;;18.33;8.73;;;23.00;1.00;;;;;;5000671;28;25141;-74
2022/05/15 09:05:32;;;;;;;25.20;8.27;;;22.60;1.00;;;;;;5002849;28;25104;-76
2022/05/15 09:08:20;;;;;;;18.95;8.70;;;22.90;1.00;;;;;;5002432;28;25067;-74
2022/05/15 09:10:57;;;;;;;16.15;7.85;;;23.40;1.00;;;;;;5001396;28;25067;-74
2022/05/15 09:13:31;;;;;;;16.45;7.78;;;23.50;1.00;;;;;;4999136;28;25068;-76
2022/05/15 09:16:00;;;;;;;18.98;8.98;;;23.40;1.00;;;;;;4998726;28;25067;-73
2022/05/15 09:18:27;;;;;;;24.52;8.30;;;23.30;1.00;;;;;;5003393;28;25098;-72
2022/05/15 09:20:53;;;;;;;19.67;9.40;;;23.70;1.00;;;;;;5013797;28;25070;-74
2022/05/15 09:23:49;;;;;;;18.75;8.32;;;23.00;1.00;;;;;;5015333;28;25085;-74
2022/05/15 09:26:40;;;;;;;17.70;8.23;;;22.80;1.00;;;;;;5000395;28;25073;-75
2022/05/15 09:29:14;;;;;;;16.45;7.78;;;23.40;1.00;;;;;;5000714;28;25049;-76
2022/05/15 09:31:44;;;;;;;19.95;7.55;;;23.40;1.00;;;;;;5000178;28;25048;-75
2022/05/15 09:34:31;;;;;;;14.27;7.22;;;23.50;1.00;;;;;;4998950;28;25104;-75
2022/05/15 09:39:47;;;;;;;21.23;8.02;;;23.90;1.00;;;;;;5003601;28;25145;-75
2022/05/15 09:45:25;;;;;;;25.23;9.23;;;24.20;1.00;;;;;;5003371;28;25064;-74
2022/05/15 09:47:51;;;;;;;19.25;8.45;;;23.70;1.00;;;;;;5000736;28;25110;-74
2022/05/15 09:50:37;;;;;;;18.40;7.32;;;23.80;1.00;;;;;;4999851;28;25092;-77
2022/05/15 09:53:23;;;;;;;19.50;7.50;;;24.00;1.00;;;;;;5000423;28;25069;-76
2022/05/15 09:56:07;;;;;;;20.90;8.27;;;24.60;1.00;;;;;;5004328;28;25052;-74
2022/05/15 09:58:51;;;;;;;24.13;9.57;;;24.80;1.00;;;;;;5009040;28;25070;-75
2022/05/15 10:01:25;;;;;;;16.23;7.32;;;24.20;1.00;;;;;;5011797;28;25049;-74
2022/05/15 10:03:53;;;;;;;15.35;7.07;;;24.30;1.00;;;;;;5010574;28;25042;-74
2022/05/15 10:06:21;;;;;;;17.08;7.60;;;24.80;1.00;;;;;;5011092;28;25072;-77
2022/05/15 10:09:09;;;;;;;21.33;7.47;;;25.30;1.00;;;;;;5009546;28;25064;-76
2022/05/15 10:11:38;;;;;;;19.40;7.78;;;25.00;1.00;;;;;;5009884;28;25132;-76
2022/05/15 10:14:06;;;;;;;20.95;7.80;;;24.60;1.00;;;;;;5011530;28;25079;-74
2022/05/15 10:16:37;;;;;;;22.75;7.72;;;24.60;1.00;;;;;;5010411;28;25114;-73
2022/05/15 10:19:12;;;;;;;23.02;7.70;;;24.80;1.00;;;;;;5008688;28;25075;-74
2022/05/15 10:21:50;;;;;;;15.88;6.15;;;25.10;1.00;;;;;;5008614;28;25074;-75
2022/05/15 10:24:39;;;;;;;19.08;7.93;;;25.90;1.00;;;;;;5008165;28;25074;-77
2022/05/15 10:27:10;;;;;;;20.42;6.88;;;25.40;1.00;;;;;;5022768;28;25046;-76
2022/05/15 10:29:54;;;;;;;14.50;6.35;;;25.20;1.00;;;;;;5008965;28;25064;-75
2022/05/15 10:32:29;;;;;;;18.05;5.85;;;25.30;1.00;;;;;;5008407;28;25072;-75
2022/05/15 10:34:56;;;;;;;20.92;7.00;;;25.50;1.00;;;;;;5006513;28;25226;-74
2022/05/15 10:37:50;;;;;;;13.60;6.32;;;25.70;1.00;;;;;;5007769;28;25137;-75
2022/05/15 10:40:15;;;;;;;16.52;6.93;;;25.90;1.00;;;;;;5009223;28;25167;-75
2022/05/15 10:43:03;;;;;;;16.60;6.50;;;25.40;1.00;;;;;;5009374;28;25075;-78
2022/05/15 10:46:01;;;;;;;18.45;7.03;;;25.30;1.00;;;;;;5010936;28;25075;-75
2022/05/15 10:48:45;;;;;;;17.30;6.13;;;25.20;1.00;;;;;;5015820;28;25108;-76
2022/05/15 10:51:21;;;;;;;19.50;6.50;;;25.60;1.00;;;;;;5018633;28;25059;-77
2022/05/15 10:59:59;;;;;;;13.65;6.57;;;25.40;1.00;;;;;;5016993;28;25097;-77
2022/05/15 11:03:02;;;;;;;21.08;6.93;;;25.60;1.00;;;;;;5014598;28;25078;-76
2022/05/15 11:05:38;;;;;;;16.80;6.75;;;25.60;1.00;;;;;;5016665;28;25096;-77
2022/05/15 11:08:06;;;;;;;13.60;5.47;;;26.30;1.00;;;;;;5022632;28;25068;-74
2022/05/15 11:10:44;;;;;;;16.48;6.18;;;26.80;1.00;;;;;;5014870;28;25084;-75
2022/05/15 11:13:35;;;;;;;19.33;7.93;;;26.80;1.00;;;;;;5017869;28;25145;-73
2022/05/15 11:16:34;;;;;;;19.80;6.05;;;26.00;1.00;;;;;;5016347;28;25075;-79
2022/05/15 11:19:14;;;;;;;17.77;6.95;;;26.60;1.00;;;;;;5013416;28;25190;-78
2022/05/15 11:22:10;;;;;;;13.50;5.32;;;26.30;1.00;;;;;;5015471;28;25071;-78
2022/05/15 11:24:55;;;;;;;15.07;5.60;;;26.40;1.00;;;;;;5016914;28;25058;-78
2022/05/15 11:27:27;;;;;;;12.38;4.82;;;26.30;1.00;;;;;;5024177;28;25086;-77
2022/05/15 11:29:57;;;;;;;14.77;5.00;;;26.40;1.00;;;;;;5038916;28;25073;-76
2022/05/15 11:32:29;;;;;;;13.00;5.22;;;26.80;1.00;;;;;;5022104;28;25101;-75
2022/05/15 11:35:03;;;;;;;12.95;4.43;;;26.60;1.00;;;;;;5023670;28;25068;-75
2022/05/15 11:37:38;;;;;;;15.45;5.18;;;27.20;1.00;;;;;;5028776;28;25073;-74
2022/05/15 11:40:24;;;;;;;11.27;4.95;;;26.80;1.00;;;;;;5031120;28;25055;-77
2022/05/15 11:42:50;;;;;;;12.48;4.57;;;26.00;1.00;;;;;;5031524;28;25084;-77
2022/05/15 11:45:32;;;;;;;16.30;5.85;;;26.40;1.00;;;;;;5031897;28;25090;-76
2022/05/15 11:48:13;;;;;;;14.93;5.10;;;26.90;1.00;;;;;;5033139;28;25078;-76
2022/05/15 11:50:53;;;;;;;16.20;5.35;;;26.80;1.00;;;;;;5032456;28;25108;-77
2022/05/15 11:53:46;;;;;;;12.32;5.47;;;26.80;1.00;;;;;;5031075;28;25129;-77
2022/05/15 11:56:31;;;;;;;15.73;4.55;;;26.40;1.00;;;;;;5030070;28;25070;-76
2022/05/15 11:59:03;;;;;;;15.20;4.55;;;26.80;1.00;;;;;;5018503;28;25060;-77
2022/05/15 12:01:32;;;;;;;13.73;5.28;;;27.10;1.00;;;;;;5016064;28;25097;-75
2022/05/15 12:04:36;;;;;;;12.75;5.35;;;26.90;1.00;;;;;;5013445;28;25113;-77
2022/05/15 12:07:01;;;;;;;15.00;5.03;;;26.50;1.00;;;;;;4999509;28;25076;-75
2022/05/15 12:09:49;;;;;;;12.90;4.57;;;26.50;1.00;;;;;;5011318;28;25129;-76
2022/05/15 12:12:24;;;;;;;19.10;5.63;;;26.90;1.00;;;;;;5011761;28;25071;-76
2022/05/15 12:15:05;;;;;;;13.77;5.47;;;27.50;1.00;;;;;;5011579;28;25075;-76
2022/05/15 12:17:35;;;;;;;10.38;4.72;;;27.50;1.00;;;;;;5008286;28;25068;-74
2022/05/15 12:20:15;;;;;;;13.18;5.90;;;27.60;1.00;;;;;;5013599;28;25110;-77
2022/05/15 12:22:58;;;;;;;13.82;5.30;;;26.90;1.00;;;;;;5008007;28;25152;-76
2022/05/15 12:25:52;;;;;;;18.20;5.07;;;26.00;1.00;;;;;;5014455;28;25067;-75
2022/05/15 12:28:52;;;;;;;14.10;5.00;;;26.10;1.00;;;;;;5021074;28;25057;-78
2022/05/15 12:31:38;;;;;;;9.57;5.65;;;26.20;1.00;;;;;;5015933;28;25079;-74
2022/05/15 12:34:46;;;;;;;12.43;4.47;;;26.00;1.00;;;;;;5021454;28;25060;-78
2022/05/15 12:37:17;;;;;;;11.60;4.80;;;26.50;1.00;;;;;;4958974;28;25098;-76
2022/05/15 12:39:46;;;;;;;10.32;4.25;;;27.10;1.00;;;;;;4966641;28;25072;-76
2022/05/15 12:42:23;;;;;;;12.68;5.05;;;27.70;1.00;;;;;;4993084;28;24865;-74
2022/05/15 12:45:03;;;;;;;13.40;5.20;;;27.60;1.00;;;;;;5017920;28;25051;-76
2022/05/15 12:47:32;;;;;;;13.15;4.10;;;27.10;1.00;;;;;;5011508;28;25062;-75
2022/05/15 12:50:02;;;;;;;14.90;4.40;;;27.10;1.00;;;;;;5010753;28;25043;-77
2022/05/15 12:52:30;;;;;;;9.88;4.93;;;27.30;1.00;;;;;;5009792;28;25066;-74
2022/05/15 12:54:59;;;;;;;14.00;4.97;;;26.80;1.00;;;;;;5006989;28;25062;-74
2022/05/15 12:57:25;;;;;;;12.48;4.82;;;26.20;1.00;;;;;;5007223;28;25152;-74
2022/05/15 12:59:53;;;;;;;13.85;4.03;;;26.10;1.00;;;;;;5006185;28;25073;-74
2022/05/15 13:02:32;;;;;;;12.32;4.60;;;25.80;1.00;;;;;;5009451;28;25066;-76
2022/05/15 13:05:06;;;;;;;11.60;3.95;;;25.90;1.00;;;;;;5005910;28;25093;-76
2022/05/15 13:07:42;;;;;;;7.25;4.20;;;26.00;1.00;;;;;;5007626;28;25054;-77
2022/05/15 13:10:12;;;;;;;13.50;4.30;;;26.20;1.00;;;;;;5004576;28;25058;-77
2022/05/15 13:12:49;;;;;;;15.13;3.97;;;25.90;1.00;;;;;;5004601;28;25079;-78
2022/05/15 13:15:23;;;;;;;11.57;4.35;;;25.60;1.00;;;;;;5009524;28;25182;-77
2022/05/15 13:17:49;;;;;;;7.45;3.45;;;26.00;1.00;;;;;;5013702;28;25061;-78
2022/05/15 13:20:19;;;;;;;12.90;3.72;;;25.90;1.00;;;;;;5013233;28;25066;-77
2022/05/15 13:22:45;;;;;;;12.32;3.92;;;25.90;1.00;;;;;;5009613;28;25075;-79
2022/05/15 13:25:37;;;;;;;11.30;3.95;;;26.10;1.00;;;;;;5024194;28;25057;-75
2022/05/15 13:28:03;;;;;;;;;;;26.00;1.00;;;;;;5005247;28;25067;-75